Albion, Arkansas
Current Conditions -  °F | °C
As of 8:56 AM on Sunday 23 Nov 2014 (Local Time) from KSRC Reporting Station
Moderate Rain Moderate Rain  
Wind Chill: 58°   Ceiling: 500
Heat Index: 58°   Visibility: 4mi
Dew Point: 58°   Wind: 8mph
Humidity: 100%   Direction: 150°SSE
Pressure: 29.62"   Gusts: NA
Location:  35.2662°N, 91.8491°W
Report Text: KSRC 231456Z AUTO 15007KT 4SM RA BR OVC005 14/14 A2962 RMK AO2 SLP037 P0011 60019 T01440144 58026 TSNO
Loading
Personal Weather Stations






























Interactive Weather Map New forecast layout! Learn more

10-Day Weather Forecast

Advertisements
Track Severe Weather on mobile